Time;durP1;ratioP1;P1;durP2;ratioP2;P2;SDS_P1;SDS_P2;PMS_P1;PMS_P2;Temp;Humidity;BMP_temperature;BMP_pressure;BME280_temperature;BME280_humidity;BME280_pressure;Samples;Min_cycle;Max_cycle;Signal;HPM_P1;HPM_P2
2021/11/03 00:01:16;;;;;;;7.20;3.00;;;;;;;;;;4971659;28;20498;-68
2021/11/03 00:03:43;;;;;;;6.47;3.20;;;;;;;;;;4971597;28;20051;-68
2021/11/03 00:06:09;;;;;;;3.80;2.28;;;;;;;;;;4971580;28;20054;-68
2021/11/03 00:08:36;;;;;;;5.55;2.72;;;;;;;;;;4996800;28;20058;-68
2021/11/03 00:11:03;;;;;;;5.65;2.63;;;;;;;;;;4990945;28;20091;-68
2021/11/03 00:13:30;;;;;;;2.53;1.98;;;;;;;;;;4990871;28;20544;-69
2021/11/03 00:15:57;;;;;;;3.97;1.90;;;;;;;;;;4991959;28;20050;-68
2021/11/03 00:18:25;;;;;;;3.80;2.38;;;;;;;;;;4990934;28;20058;-69
2021/11/03 00:20:52;;;;;;;7.13;3.65;;;;;;;;;;4990899;28;20128;-68
2021/11/03 00:23:18;;;;;;;4.25;2.47;;;;;;;;;;5006928;28;20050;-68
2021/11/03 00:25:48;;;;;;;3.95;2.05;;;;;;;;;;4992316;28;20046;-68
2021/11/03 00:28:16;;;;;;;4.95;2.53;;;;;;;;;;4996100;28;20109;-69
2021/11/03 00:30:45;;;;;;;5.07;2.25;;;;;;;;;;4994742;28;20402;-68
2021/11/03 00:33:11;;;;;;;3.85;2.25;;;;;;;;;;4994679;28;20104;-69
2021/11/03 00:35:38;;;;;;;3.55;2.03;;;;;;;;;;5009608;28;20050;-69
2021/11/03 00:38:05;;;;;;;2.05;1.77;;;;;;;;;;4975109;28;20498;-69
2021/11/03 00:40:31;;;;;;;2.53;1.77;;;;;;;;;;4975383;28;20101;-68
2021/11/03 00:42:58;;;;;;;5.38;2.40;;;;;;;;;;4975019;28;20582;-68
2021/11/03 00:45:25;;;;;;;6.85;2.00;;;;;;;;;;4975053;28;20109;-69
2021/11/03 00:47:51;;;;;;;3.03;2.00;;;;;;;;;;4974923;28;20078;-68
2021/11/03 00:50:19;;;;;;;4.22;2.13;;;;;;;;;;4974989;28;20051;-68
2021/11/03 00:52:45;;;;;;;2.50;1.95;;;;;;;;;;4974538;28;20054;-68
2021/11/03 00:55:12;;;;;;;5.90;1.98;;;;;;;;;;4991027;28;20125;-69
2021/11/03 00:57:38;;;;;;;3.38;1.77;;;;;;;;;;4990979;28;20469;-68
2021/11/03 01:00:07;;;;;;;2.42;1.80;;;;;;;;;;4991028;28;20051;-68
2021/11/03 01:02:34;;;;;;;2.45;1.90;;;;;;;;;;4974662;28;20109;-68
2021/11/03 01:05:02;;;;;;;3.88;1.70;;;;;;;;;;4991030;28;20445;-68
2021/11/03 01:07:29;;;;;;;3.10;1.42;;;;;;;;;;4974528;28;20102;-68
2021/11/03 01:09:55;;;;;;;2.20;1.58;;;;;;;;;;4974540;28;20521;-68
2021/11/03 01:12:22;;;;;;;3.05;1.75;;;;;;;;;;4974372;28;20059;-67
2021/11/03 01:14:48;;;;;;;2.88;1.65;;;;;;;;;;4990475;28;20106;-68
2021/11/03 01:17:15;;;;;;;3.10;1.60;;;;;;;;;;4990576;28;20081;-68
2021/11/03 01:19:42;;;;;;;1.95;1.60;;;;;;;;;;4976888;28;20054;-67
2021/11/03 01:22:09;;;;;;;1.98;1.67;;;;;;;;;;4990226;28;20063;-68
2021/11/03 01:24:35;;;;;;;2.13;1.67;;;;;;;;;;4990499;28;20560;-68
2021/11/03 01:27:02;;;;;;;1.85;1.35;;;;;;;;;;4975344;28;20082;-69
2021/11/03 01:29:28;;;;;;;3.40;2.05;;;;;;;;;;4975362;28;20568;-68
2021/11/03 01:31:55;;;;;;;5.53;1.80;;;;;;;;;;4996533;28;20050;-68
2021/11/03 01:34:22;;;;;;;2.17;1.42;;;;;;;;;;4994740;28;20497;-69
2021/11/03 01:36:48;;;;;;;3.97;1.70;;;;;;;;;;4994451;28;20460;-67
2021/11/03 01:39:15;;;;;;;4.93;1.73;;;;;;;;;;4993563;28;20587;-68
2021/11/03 01:41:42;;;;;;;3.00;1.52;;;;;;;;;;4993153;28;20519;-67
2021/11/03 01:44:12;;;;;;;4.03;1.30;;;;;;;;;;4993928;28;20058;-67
2021/11/03 01:46:41;;;;;;;2.95;1.33;;;;;;;;;;5009410;28;20398;-68
2021/11/03 01:49:26;;;;;;;3.58;1.50;;;;;;;;;;4993163;28;20054;-68
2021/11/03 01:52:06;;;;;;;3.13;1.52;;;;;;;;;;4993217;28;20398;-68
2021/11/03 01:54:40;;;;;;;3.90;1.58;;;;;;;;;;4993356;28;20556;-69
2021/11/03 01:57:09;;;;;;;3.13;1.60;;;;;;;;;;4993020;28;20494;-69
2021/11/03 01:59:40;;;;;;;2.78;1.65;;;;;;;;;;4993226;28;20500;-68
2021/11/03 02:02:07;;;;;;;3.38;1.58;;;;;;;;;;5008938;28;20054;-69
2021/11/03 02:04:34;;;;;;;2.53;1.67;;;;;;;;;;4992902;28;20540;-69
2021/11/03 02:07:05;;;;;;;2.65;1.60;;;;;;;;;;4992878;28;20425;-69
2021/11/03 02:09:31;;;;;;;3.00;1.48;;;;;;;;;;4993013;28;20129;-68
2021/11/03 02:11:58;;;;;;;1.92;1.40;;;;;;;;;;4980514;28;20111;-69
2021/11/03 02:14:24;;;;;;;3.95;1.50;;;;;;;;;;4974610;28;20109;-69
2021/11/03 02:16:54;;;;;;;3.47;1.40;;;;;;;;;;4974435;28;20285;-70
2021/11/03 02:19:26;;;;;;;2.13;1.60;;;;;;;;;;4973248;28;20465;-68
2021/11/03 02:22:02;;;;;;;5.55;1.63;;;;;;;;;;4972936;28;20098;-68
2021/11/03 02:24:41;;;;;;;3.47;1.90;;;;;;;;;;4974353;28;20055;-68
2021/11/03 02:27:08;;;;;;;4.60;1.73;;;;;;;;;;4973192;28;20419;-68
2021/11/03 02:29:34;;;;;;;2.35;1.25;;;;;;;;;;4973187;28;20054;-68
2021/11/03 02:32:23;;;;;;;4.38;1.70;;;;;;;;;;4973999;28;20062;-68
2021/11/03 02:34:50;;;;;;;1.88;1.60;;;;;;;;;;4988838;28;20047;-68
2021/11/03 02:37:28;;;;;;;2.92;2.22;;;;;;;;;;4972717;28;20051;-68
2021/11/03 02:40:24;;;;;;;2.15;1.55;;;;;;;;;;4992986;28;20077;-67
2021/11/03 02:43:00;;;;;;;2.55;1.60;;;;;;;;;;4999405;28;20055;-69
2021/11/03 02:46:03;;;;;;;1.38;1.27;;;;;;;;;;4992172;28;20497;-68
2021/11/03 02:48:32;;;;;;;1.70;1.40;;;;;;;;;;4999478;28;20514;-68
2021/11/03 02:51:07;;;;;;;2.45;1.73;;;;;;;;;;4975666;28;20093;-67
2021/11/03 02:53:38;;;;;;;5.95;1.83;;;;;;;;;;4983108;28;20407;-69
2021/11/03 02:56:06;;;;;;;3.47;2.17;;;;;;;;;;4988712;28;20051;-68
2021/11/03 02:58:34;;;;;;;3.15;1.85;;;;;;;;;;4973824;28;20051;-68
2021/11/03 03:01:17;;;;;;;3.60;2.13;;;;;;;;;;4972498;28;20055;-68
2021/11/03 03:03:45;;;;;;;4.70;1.80;;;;;;;;;;4972323;28;20078;-67
2021/11/03 03:06:19;;;;;;;4.18;2.15;;;;;;;;;;4973773;28;20053;-67
2021/11/03 03:08:47;;;;;;;2.85;2.20;;;;;;;;;;4972600;28;20182;-67
2021/11/03 03:11:14;;;;;;;2.38;1.75;;;;;;;;;;4972364;28;20058;-67
2021/11/03 03:13:41;;;;;;;3.08;1.80;;;;;;;;;;4988607;28;20054;-66
2021/11/03 03:16:08;;;;;;;3.55;2.10;;;;;;;;;;4973265;28;20105;-67
2021/11/03 03:18:35;;;;;;;4.30;2.53;;;;;;;;;;4988266;28;20050;-67
2021/11/03 03:21:02;;;;;;;2.20;1.80;;;;;;;;;;4973366;28;20199;-68
2021/11/03 03:23:39;;;;;;;2.58;1.90;;;;;;;;;;4974081;28;20054;-68
2021/11/03 03:26:07;;;;;;;3.47;1.92;;;;;;;;;;4991389;28;20112;-68
2021/11/03 03:28:34;;;;;;;3.13;1.80;;;;;;;;;;4991669;28;20060;-69
2021/11/03 03:31:01;;;;;;;4.78;2.30;;;;;;;;;;4992694;28;20481;-67
2021/11/03 03:33:28;;;;;;;4.53;2.05;;;;;;;;;;4978689;28;20055;-68
2021/11/03 03:35:54;;;;;;;3.25;2.17;;;;;;;;;;5012091;23;20097;-69
2021/11/03 03:38:21;;;;;;;4.00;1.80;;;;;;;;;;4992538;28;20054;-68
2021/11/03 03:40:48;;;;;;;4.10;2.15;;;;;;;;;;4992603;28;20464;-68
2021/11/03 03:43:14;;;;;;;3.38;2.05;;;;;;;;;;4992492;28;20055;-68
2021/11/03 03:45:41;;;;;;;4.05;2.20;;;;;;;;;;4992488;28;20050;-68
2021/11/03 03:48:08;;;;;;;6.07;2.08;;;;;;;;;;4973172;28;20050;-68
2021/11/03 03:50:35;;;;;;;4.60;2.63;;;;;;;;;;4973347;28;20398;-68
2021/11/03 03:53:02;;;;;;;6.10;2.15;;;;;;;;;;4972854;28;20062;-68
2021/11/03 03:55:29;;;;;;;5.13;2.42;;;;;;;;;;4973017;28;20046;-68
2021/11/03 03:57:56;;;;;;;4.57;2.28;;;;;;;;;;4972835;28;20059;-69
2021/11/03 04:00:23;;;;;;;3.22;2.20;;;;;;;;;;4973077;28;20054;-68
2021/11/03 04:02:52;;;;;;;6.20;2.70;;;;;;;;;;4976453;28;20101;-69
2021/11/03 04:05:20;;;;;;;3.67;2.50;;;;;;;;;;4977123;28;20424;-69
2021/11/03 04:07:46;;;;;;;3.25;2.58;;;;;;;;;;4976867;28;20047;-68
2021/11/03 04:10:14;;;;;;;4.35;2.95;;;;;;;;;;4976663;28;20051;-69
2021/11/03 04:12:41;;;;;;;4.57;2.83;;;;;;;;;;4975616;28;20066;-68
2021/11/03 04:15:09;;;;;;;4.18;2.22;;;;;;;;;;4976887;28;20059;-69
2021/11/03 04:17:36;;;;;;;2.97;2.40;;;;;;;;;;4976638;28;20047;-69
2021/11/03 04:20:04;;;;;;;3.72;2.20;;;;;;;;;;4976633;28;20054;-69
2021/11/03 04:22:31;;;;;;;3.60;2.35;;;;;;;;;;4976256;28;20065;-69
2021/11/03 04:24:58;;;;;;;3.33;2.58;;;;;;;;;;4976540;28;20117;-69
2021/11/03 04:27:24;;;;;;;4.57;2.53;;;;;;;;;;4976527;28;20457;-68
2021/11/03 04:29:51;;;;;;;3.83;2.55;;;;;;;;;;4976587;28;20101;-68
2021/11/03 04:32:18;;;;;;;7.50;3.10;;;;;;;;;;4976410;28;20469;-68
2021/11/03 04:34:44;;;;;;;6.10;2.70;;;;;;;;;;4976335;28;20047;-68
2021/11/03 04:37:11;;;;;;;7.93;2.88;;;;;;;;;;4976140;28;20055;-68
2021/11/03 04:39:38;;;;;;;3.97;2.80;;;;;;;;;;4975161;28;20560;-69
2021/11/03 04:42:05;;;;;;;4.45;2.95;;;;;;;;;;4976010;28;20054;-68
2021/11/03 04:44:32;;;;;;;5.07;3.20;;;;;;;;;;4976304;28;20046;-68
2021/11/03 04:46:58;;;;;;;7.18;4.43;;;;;;;;;;4976149;28;20047;-68
2021/11/03 04:49:25;;;;;;;6.50;3.72;;;;;;;;;;4976174;28;20097;-68
2021/11/03 04:51:52;;;;;;;5.90;3.00;;;;;;;;;;4975797;28;20050;-68
2021/11/03 04:54:18;;;;;;;6.60;3.28;;;;;;;;;;4976070;28;20506;-68
2021/11/03 04:56:45;;;;;;;5.78;3.40;;;;;;;;;;4975654;28;20102;-68
2021/11/03 04:59:13;;;;;;;4.47;3.28;;;;;;;;;;4976090;28;20422;-68
2021/11/03 05:01:39;;;;;;;5.45;2.90;;;;;;;;;;4975781;28;20465;-68
2021/11/03 05:04:06;;;;;;;5.65;3.03;;;;;;;;;;4975933;28;20108;-68
2021/11/03 05:06:35;;;;;;;6.40;3.33;;;;;;;;;;4975789;28;20051;-68
2021/11/03 05:09:02;;;;;;;7.82;3.70;;;;;;;;;;4975771;28;20058;-68
2021/11/03 05:11:29;;;;;;;7.53;3.63;;;;;;;;;;4975543;28;20712;-68
2021/11/03 05:13:56;;;;;;;7.32;3.85;;;;;;;;;;4975477;28;20102;-68
2021/11/03 05:16:25;;;;;;;6.60;3.60;;;;;;;;;;4975916;28;20102;-68
2021/11/03 05:18:52;;;;;;;8.13;3.42;;;;;;;;;;4975674;28;20054;-68
2021/11/03 05:21:18;;;;;;;7.35;3.58;;;;;;;;;;4975490;28;20097;-68
2021/11/03 05:23:46;;;;;;;5.85;3.50;;;;;;;;;;4975368;28;20110;-68
2021/11/03 05:26:17;;;;;;;4.63;3.45;;;;;;;;;;4975735;28;20129;-68
2021/11/03 05:28:47;;;;;;;7.65;3.72;;;;;;;;;;4974268;28;20109;-68
2021/11/03 05:31:14;;;;;;;6.65;4.00;;;;;;;;;;4975519;28;20505;-69
2021/11/03 05:33:40;;;;;;;7.05;3.50;;;;;;;;;;4975027;28;20093;-69
2021/11/03 05:36:07;;;;;;;5.95;3.40;;;;;;;;;;4975070;28;20110;-69
2021/11/03 05:38:34;;;;;;;5.25;3.45;;;;;;;;;;4974331;28;20055;-68
2021/11/03 05:41:01;;;;;;;5.57;3.50;;;;;;;;;;4975242;28;20051;-68
2021/11/03 05:43:27;;;;;;;8.60;4.53;;;;;;;;;;4975101;28;20509;-68
2021/11/03 05:45:54;;;;;;;6.22;4.60;;;;;;;;;;4974975;28;20086;-68
2021/11/03 05:48:22;;;;;;;5.85;4.03;;;;;;;;;;4974057;28;20101;-69
2021/11/03 05:50:49;;;;;;;5.50;3.97;;;;;;;;;;4975072;28;20055;-68
2021/11/03 05:53:15;;;;;;;6.38;3.30;;;;;;;;;;4975027;28;20399;-68
2021/11/03 05:55:42;;;;;;;4.55;3.67;;;;;;;;;;4975045;28;20051;-68
2021/11/03 05:58:09;;;;;;;5.93;3.53;;;;;;;;;;4974906;28;20539;-68
2021/11/03 06:00:38;;;;;;;5.57;3.50;;;;;;;;;;4974568;28;20046;-68
2021/11/03 06:03:06;;;;;;;4.75;3.30;;;;;;;;;;4974618;28;20117;-68
2021/11/03 06:05:32;;;;;;;5.32;3.00;;;;;;;;;;4974922;28;20132;-68
2021/11/03 06:08:01;;;;;;;4.13;3.22;;;;;;;;;;4974859;28;20402;-68
2021/11/03 06:10:31;;;;;;;5.75;3.55;;;;;;;;;;4974887;28;20054;-68
2021/11/03 06:12:58;;;;;;;3.47;2.78;;;;;;;;;;4974533;28;20046;-68
2021/11/03 06:15:31;;;;;;;2.72;2.50;;;;;;;;;;4974808;28;20054;-68
2021/11/03 06:17:57;;;;;;;3.63;2.37;;;;;;;;;;4986295;28;20050;-68
2021/11/03 06:20:24;;;;;;;3.60;2.90;;;;;;;;;;4977322;28;20301;-68
2021/11/03 06:22:51;;;;;;;6.55;3.17;;;;;;;;;;4974232;28;20133;-68
2021/11/03 06:25:18;;;;;;;9.80;2.83;;;;;;;;;;4973715;28;20058;-68
2021/11/03 06:27:50;;;;;;;5.30;3.35;;;;;;;;;;4974249;28;20105;-68
2021/11/03 06:30:19;;;;;;;5.80;2.88;;;;;;;;;;4974257;28;20047;-68
2021/11/03 06:32:46;;;;;;;3.28;2.40;;;;;;;;;;4974023;28;20113;-68
2021/11/03 06:35:13;;;;;;;4.43;2.40;;;;;;;;;;4974339;28;20051;-68
2021/11/03 06:37:39;;;;;;;2.88;2.50;;;;;;;;;;4974081;28;20051;-68
2021/11/03 06:40:09;;;;;;;2.63;2.25;;;;;;;;;;4957085;28;20054;-68
2021/11/03 06:42:36;;;;;;;4.00;1.95;;;;;;;;;;4973984;28;20051;-70
2021/11/03 06:45:04;;;;;;;2.95;2.17;;;;;;;;;;4974074;28;20111;-67
2021/11/03 06:47:31;;;;;;;4.13;2.42;;;;;;;;;;4974110;28;20462;-67
2021/11/03 06:49:58;;;;;;;4.15;2.10;;;;;;;;;;4973955;28;20105;-67
2021/11/03 06:52:25;;;;;;;3.35;2.30;;;;;;;;;;4973910;28;20442;-68
2021/11/03 06:54:52;;;;;;;3.55;1.95;;;;;;;;;;4972930;28;20651;-67
2021/11/03 06:57:18;;;;;;;3.50;1.98;;;;;;;;;;4971581;28;20101;-68
2021/11/03 06:59:45;;;;;;;3.35;2.22;;;;;;;;;;4971904;28;20050;-68
2021/11/03 07:02:15;;;;;;;4.25;2.00;;;;;;;;;;4971815;28;20054;-69
2021/11/03 07:04:41;;;;;;;3.53;1.80;;;;;;;;;;4970741;28;20054;-68
2021/11/03 07:07:09;;;;;;;4.20;1.73;;;;;;;;;;4971350;28;20129;-69
2021/11/03 07:09:36;;;;;;;2.22;1.50;;;;;;;;;;4971251;28;20467;-68
2021/11/03 07:12:04;;;;;;;2.10;1.75;;;;;;;;;;4971340;28;20577;-68
2021/11/03 07:14:31;;;;;;;3.05;2.63;;;;;;;;;;4971663;28;20568;-68
2021/11/03 07:16:57;;;;;;;2.08;1.70;;;;;;;;;;4971332;28;20119;-68
2021/11/03 07:19:24;;;;;;;1.30;1.00;;;;;;;;;;4971387;28;20524;-68
2021/11/03 07:21:51;;;;;;;2.08;1.25;;;;;;;;;;4969398;28;20090;-68
2021/11/03 07:24:18;;;;;;;2.17;1.50;;;;;;;;;;4971574;28;20058;-68
2021/11/03 07:26:44;;;;;;;1.85;1.30;;;;;;;;;;4971394;28;20101;-67
2021/11/03 07:29:11;;;;;;;1.50;1.30;;;;;;;;;;4986315;28;20576;-68
2021/11/03 07:31:38;;;;;;;1.77;1.00;;;;;;;;;;4971019;28;20575;-68
2021/11/03 07:34:05;;;;;;;3.78;1.50;;;;;;;;;;4970893;28;20066;-68
2021/11/03 07:36:32;;;;;;;3.92;1.60;;;;;;;;;;4970964;28;20054;-68
2021/11/03 07:38:59;;;;;;;2.10;1.30;;;;;;;;;;4958980;28;20098;-70
2021/11/03 07:41:35;;;;;;;2.42;1.98;;;;;;;;;;4968697;28;20058;-70
2021/11/03 07:44:04;;;;;;;1.42;1.30;;;;;;;;;;4959116;28;20121;-70
2021/11/03 07:46:32;;;;;;;1.50;1.00;;;;;;;;;;4958261;28;20542;-70
2021/11/03 07:48:59;;;;;;;3.20;2.00;;;;;;;;;;4960927;28;20429;-69
2021/11/03 07:51:26;;;;;;;3.25;1.52;;;;;;;;;;4957255;28;20066;-70
2021/11/03 07:53:58;;;;;;;6.32;1.70;;;;;;;;;;4958005;28;20586;-70
2021/11/03 07:56:26;;;;;;;2.15;1.30;;;;;;;;;;4958162;28;20046;-69
2021/11/03 07:58:53;;;;;;;1.92;1.25;;;;;;;;;;4960366;28;20474;-69
2021/11/03 08:01:20;;;;;;;2.65;1.15;;;;;;;;;;4959533;28;20057;-71
2021/11/03 08:03:47;;;;;;;1.38;1.23;;;;;;;;;;4956149;28;20047;-71
2021/11/03 08:06:14;;;;;;;1.48;1.27;;;;;;;;;;4956661;28;20054;-71
2021/11/03 08:08:49;;;;;;;1.77;1.08;;;;;;;;;;4956847;28;20055;-71
2021/11/03 08:11:16;;;;;;;1.17;0.80;;;;;;;;;;4958143;28;20050;-69
2021/11/03 08:13:43;;;;;;;1.50;0.80;;;;;;;;;;4958605;28;20047;-68
2021/11/03 08:16:10;;;;;;;2.20;0.90;;;;;;;;;;4962673;28;20062;-71
2021/11/03 08:18:40;;;;;;;1.30;0.82;;;;;;;;;;4942795;28;20126;-70
2021/11/03 08:21:06;;;;;;;1.80;0.80;;;;;;;;;;4941676;28;20066;-68
2021/11/03 08:23:34;;;;;;;2.40;0.73;;;;;;;;;;4964741;28;20130;-68
2021/11/03 08:26:00;;;;;;;2.10;1.00;;;;;;;;;;4958144;28;20051;-71
2021/11/03 08:28:27;;;;;;;1.25;1.05;;;;;;;;;;4961234;28;20043;-68
2021/11/03 08:30:54;;;;;;;1.90;0.90;;;;;;;;;;4958059;28;20055;-68
2021/11/03 08:33:33;;;;;;;0.82;0.80;;;;;;;;;;4958397;28;20055;-69
2021/11/03 08:36:00;;;;;;;1.10;0.90;;;;;;;;;;4958777;28;20051;-67
2021/11/03 08:38:48;;;;;;;1.15;1.00;;;;;;;;;;4957095;28;20075;-68
2021/11/03 08:41:15;;;;;;;2.03;1.35;;;;;;;;;;4961252;28;20141;-69
2021/11/03 08:43:43;;;;;;;3.33;1.08;;;;;;;;;;4958664;28;20051;-69
2021/11/03 08:46:11;;;;;;;1.38;0.90;;;;;;;;;;4958654;28;20593;-69
2021/11/03 08:48:48;;;;;;;1.30;0.88;;;;;;;;;;4963292;28;20048;-68
2021/11/03 08:51:15;;;;;;;1.30;0.75;;;;;;;;;;4960808;28;20062;-68
2021/11/03 08:53:42;;;;;;;2.88;1.17;;;;;;;;;;4963339;28;20094;-68
2021/11/03 08:56:08;;;;;;;1.33;0.88;;;;;;;;;;4961637;28;20121;-67
2021/11/03 08:58:35;;;;;;;2.22;0.80;;;;;;;;;;4963369;28;20490;-68
2021/11/03 09:01:02;;;;;;;2.00;1.23;;;;;;;;;;4961641;28;20051;-67
2021/11/03 09:03:30;;;;;;;2.80;1.10;;;;;;;;;;4964749;28;20049;-67
2021/11/03 09:06:00;;;;;;;0.93;0.70;;;;;;;;;;4962156;28;20561;-67
2021/11/03 09:08:27;;;;;;;1.92;0.95;;;;;;;;;;4963918;28;20046;-68
2021/11/03 09:10:56;;;;;;;1.63;1.20;;;;;;;;;;4965566;28;20050;-67
2021/11/03 09:13:25;;;;;;;0.80;0.70;;;;;;;;;;4961400;28;20047;-68
2021/11/03 09:15:52;;;;;;;0.82;0.75;;;;;;;;;;4965498;28;20043;-69
2021/11/03 09:18:19;;;;;;;1.25;0.90;;;;;;;;;;4961570;28;20082;-68
2021/11/03 09:20:48;;;;;;;1.90;0.93;;;;;;;;;;4962839;28;20051;-69
2021/11/03 09:23:15;;;;;;;1.77;1.08;;;;;;;;;;4961242;28;20059;-68
2021/11/03 09:25:41;;;;;;;3.35;0.90;;;;;;;;;;4963091;28;20051;-68
2021/11/03 09:28:08;;;;;;;1.45;0.73;;;;;;;;;;4965578;28;20094;-68
2021/11/03 09:30:36;;;;;;;1.33;0.65;;;;;;;;;;4964216;28;20054;-68
2021/11/03 09:33:05;;;;;;;1.48;1.00;;;;;;;;;;4961971;28;20070;-68
2021/11/03 09:35:36;;;;;;;2.58;1.10;;;;;;;;;;4961189;28;20454;-68
2021/11/03 09:38:03;;;;;;;1.30;0.85;;;;;;;;;;5033438;23;20112;-67
2021/11/03 09:40:35;;;;;;;0.80;0.70;;;;;;;;;;5019095;28;20531;-66
2021/11/03 09:43:04;;;;;;;0.82;0.60;;;;;;;;;;5023166;28;20057;-67
2021/11/03 09:45:34;;;;;;;0.77;0.60;;;;;;;;;;5015526;28;20085;-67
2021/11/03 09:48:24;;;;;;;1.00;0.80;;;;;;;;;;5033605;28;20045;-67
2021/11/03 09:50:57;;;;;;;1.17;0.80;;;;;;;;;;5033979;28;20053;-67
2021/11/03 09:53:28;;;;;;;2.55;1.00;;;;;;;;;;5033654;28;20111;-67
2021/11/03 09:55:55;;;;;;;1.88;0.77;;;;;;;;;;5033932;28;20053;-67
2021/11/03 09:58:26;;;;;;;1.08;0.60;;;;;;;;;;5032776;28;20049;-67
2021/11/03 10:00:55;;;;;;;1.77;0.80;;;;;;;;;;5032390;28;20046;-67
2021/11/03 10:03:22;;;;;;;1.05;0.55;;;;;;;;;;5016200;28;20051;-67
2021/11/03 10:06:13;;;;;;;1.25;0.70;;;;;;;;;;5033192;28;20053;-67
2021/11/03 10:08:43;;;;;;;3.17;0.70;;;;;;;;;;5016142;28;20558;-66
2021/11/03 10:11:24;;;;;;;3.17;2.40;;;;;;;;;;5024578;28;20050;-67
2021/11/03 10:13:53;;;;;;;2.42;1.95;;;;;;;;;;5027178;28;20053;-66
2021/11/03 10:16:20;;;;;;;2.38;0.70;;;;;;;;;;5020766;28;20053;-67
2021/11/03 10:18:59;;;;;;;1.77;0.60;;;;;;;;;;5021844;28;20389;-66
2021/11/03 10:21:31;;;;;;;0.73;0.52;;;;;;;;;;5020628;28;20049;-66
2021/11/03 10:24:24;;;;;;;3.72;0.80;;;;;;;;;;5017943;28;20057;-72
2021/11/03 10:26:54;;;;;;;1.10;0.85;;;;;;;;;;5020013;28;20547;-74
2021/11/03 10:29:48;;;;;;;0.90;0.80;;;;;;;;;;5021838;28;20605;-74
2021/11/03 10:32:36;;;;;;;7.55;1.42;;;;;;;;;;5024935;28;20081;-72
2021/11/03 10:35:37;;;;;;;1.77;1.23;;;;;;;;;;5021311;28;20095;-76
2021/11/03 10:38:18;;;;;;;2.45;1.30;;;;;;;;;;5024859;28;20112;-72
2021/11/03 10:40:48;;;;;;;1.60;1.48;;;;;;;;;;5021197;28;20443;-71
2021/11/03 10:43:39;;;;;;;2.45;1.38;;;;;;;;;;5018555;28;20049;-73
2021/11/03 10:46:29;;;;;;;3.53;1.30;;;;;;;;;;5019123;28;20119;-75
2021/11/03 10:49:19;;;;;;;1.20;1.05;;;;;;;;;;5022789;28;20041;-75
2021/11/03 10:51:47;;;;;;;4.72;1.80;;;;;;;;;;5023249;28;20576;-75
2021/11/03 10:54:19;;;;;;;3.58;2.00;;;;;;;;;;5023354;28;20103;-71
2021/11/03 10:56:55;;;;;;;2.63;1.27;;;;;;;;;;5021503;28;20137;-72
2021/11/03 10:59:29;;;;;;;2.15;1.10;;;;;;;;;;5020329;28;20041;-72
2021/11/03 11:02:17;;;;;;;1.80;1.23;;;;;;;;;;5020601;28;20131;-72
2021/11/03 11:04:44;;;;;;;1.10;1.00;;;;;;;;;;5019091;28;20052;-71
2021/11/03 11:07:35;;;;;;;4.45;1.02;;;;;;;;;;5023003;28;20099;-67
2021/11/03 11:10:31;;;;;;;3.92;1.00;;;;;;;;;;5016619;28;20104;-67
2021/11/03 11:12:58;;;;;;;3.15;1.33;;;;;;;;;;5018903;28;20053;-68
2021/11/03 11:15:32;;;;;;;1.80;1.10;;;;;;;;;;5004240;28;20050;-68
2021/11/03 11:18:21;;;;;;;2.45;1.20;;;;;;;;;;5016448;28;20049;-66
2021/11/03 11:20:49;;;;;;;2.00;1.30;;;;;;;;;;5020669;28;20479;-67
2021/11/03 11:23:39;;;;;;;1.40;0.90;;;;;;;;;;5018159;28;20451;-67
2021/11/03 11:26:18;;;;;;;2.05;1.45;;;;;;;;;;5002109;28;20516;-67
2021/11/03 11:28:45;;;;;;;1.90;1.30;;;;;;;;;;5000816;28;20107;-66
2021/11/03 11:31:14;;;;;;;4.57;1.38;;;;;;;;;;5019102;28;20045;-67
2021/11/03 11:34:35;;;;;;;3.72;1.58;;;;;;;;;;5017269;28;20057;-66
2021/11/03 11:37:24;;;;;;;4.82;1.50;;;;;;;;;;5038678;28;20477;-68
2021/11/03 11:40:09;;;;;;;1.50;1.40;;;;;;;;;;5016189;28;20463;-67
2021/11/03 11:42:59;;;;;;;3.10;1.83;;;;;;;;;;5016537;28;20412;-68
2021/11/03 11:45:29;;;;;;;3.97;1.88;;;;;;;;;;5016393;28;20053;-67
2021/11/03 11:48:05;;;;;;;4.28;2.10;;;;;;;;;;5015521;28;20056;-66
2021/11/03 11:50:41;;;;;;;2.58;1.80;;;;;;;;;;5025671;28;20318;-67
2021/11/03 11:53:21;;;;;;;3.38;2.03;;;;;;;;;;5016212;28;20049;-68
2021/11/03 11:56:09;;;;;;;6.95;2.13;;;;;;;;;;5017515;28;20049;-67
2021/11/03 11:58:38;;;;;;;2.75;2.42;;;;;;;;;;5017085;28;20050;-67
2021/11/03 12:01:20;;;;;;;2.65;2.03;;;;;;;;;;5016434;28;20468;-73
2021/11/03 12:04:02;;;;;;;3.65;1.95;;;;;;;;;;5016956;28;20041;-73
2021/11/03 12:06:55;;;;;;;3.20;1.83;;;;;;;;;;5020192;28;20085;-74
2021/11/03 12:09:24;;;;;;;5.07;2.22;;;;;;;;;;5019892;28;20573;-72
2021/11/03 12:11:59;;;;;;;5.53;2.53;;;;;;;;;;5022303;28;20041;-67
2021/11/03 12:14:59;;;;;;;7.45;2.33;;;;;;;;;;5020945;28;20057;-72
2021/11/03 12:17:45;;;;;;;2.60;2.10;;;;;;;;;;5018555;28;20049;-74
2021/11/03 12:20:23;;;;;;;2.13;1.92;;;;;;;;;;5023975;28;20053;-73
2021/11/03 12:23:11;;;;;;;7.45;2.33;;;;;;;;;;5022222;28;20049;-74
2021/11/03 12:25:40;;;;;;;5.63;2.20;;;;;;;;;;5017623;28;20459;-72
2021/11/03 12:28:47;;;;;;;4.93;2.58;;;;;;;;;;5019701;28;20050;-73
2021/11/03 12:31:17;;;;;;;2.78;2.03;;;;;;;;;;5010826;28;20072;-74
2021/11/03 12:34:02;;;;;;;4.95;2.45;;;;;;;;;;5023639;28;20096;-72
2021/11/03 12:36:48;;;;;;;4.57;2.13;;;;;;;;;;5023157;28;20057;-71
2021/11/03 12:39:30;;;;;;;3.65;2.20;;;;;;;;;;5028101;28;20046;-71
2021/11/03 12:42:17;;;;;;;4.50;2.13;;;;;;;;;;5023968;28;20054;-72
2021/11/03 12:44:46;;;;;;;3.47;1.70;;;;;;;;;;5024290;28;20327;-71
2021/11/03 12:47:19;;;;;;;3.83;2.33;;;;;;;;;;5003411;28;20521;-72
2021/11/03 12:49:59;;;;;;;3.90;2.50;;;;;;;;;;5021254;28;20061;-73
2021/11/03 12:52:27;;;;;;;4.60;2.22;;;;;;;;;;5022074;28;20056;-73
2021/11/03 12:54:54;;;;;;;3.70;2.13;;;;;;;;;;5020279;28;20057;-73
2021/11/03 12:57:23;;;;;;;3.30;2.20;;;;;;;;;;5022970;28;20108;-73
2021/11/03 13:00:35;;;;;;;5.13;2.35;;;;;;;;;;5022983;28;20045;-70
2021/11/03 13:03:06;;;;;;;4.13;2.78;;;;;;;;;;5038418;28;20049;-69
2021/11/03 13:05:35;;;;;;;3.78;2.30;;;;;;;;;;5005527;28;20092;-69
2021/11/03 13:08:45;;;;;;;3.97;2.28;;;;;;;;;;5022984;28;20049;-68
2021/11/03 13:11:33;;;;;;;2.80;1.88;;;;;;;;;;5030374;28;20057;-68
2021/11/03 13:14:04;;;;;;;7.05;2.65;;;;;;;;;;5018941;28;20563;-68
2021/11/03 13:16:35;;;;;;;7.72;2.08;;;;;;;;;;5024182;28;20064;-68
2021/11/03 13:19:22;;;;;;;4.35;2.38;;;;;;;;;;5020071;28;20049;-68
2021/11/03 13:21:49;;;;;;;4.88;2.08;;;;;;;;;;5022673;28;20050;-68
2021/11/03 13:24:25;;;;;;;6.05;2.42;;;;;;;;;;5020912;28;20050;-68
2021/11/03 13:26:56;;;;;;;2.30;1.95;;;;;;;;;;5020004;28;20085;-68
2021/11/03 13:29:26;;;;;;;2.45;2.13;;;;;;;;;;5003631;28;20071;-69
2021/11/03 13:32:21;;;;;;;4.00;2.20;;;;;;;;;;5019803;28;20049;-69
2021/11/03 13:34:56;;;;;;;2.40;2.20;;;;;;;;;;5028552;28;20057;-68
2021/11/03 13:37:25;;;;;;;4.78;2.53;;;;;;;;;;5025995;28;20546;-68
2021/11/03 13:40:14;;;;;;;6.22;2.97;;;;;;;;;;5019780;28;20100;-68
2021/11/03 13:42:55;;;;;;;3.95;2.72;;;;;;;;;;5022079;28;20496;-68
2021/11/03 13:45:29;;;;;;;5.03;2.80;;;;;;;;;;5021739;28;20576;-68
2021/11/03 13:48:14;;;;;;;;;;;;;;;;;;5019873;28;20476;-70
2021/11/03 13:50:49;;;;;;;4.00;2.50;;;;;;;;;;5024028;28;19921;-71
2021/11/03 13:53:16;;;;;;;3.50;2.60;;;;;;;;;;5023320;28;20053;-68
2021/11/03 13:56:11;;;;;;;4.10;3.30;;;;;;;;;;5023955;28;20100;-68
2021/11/03 13:58:44;;;;;;;5.40;2.60;;;;;;;;;;5021200;28;20046;-68
2021/11/03 14:01:13;;;;;;;2.88;2.47;;;;;;;;;;5021145;28;20061;-67
2021/11/03 14:03:59;;;;;;;4.90;2.90;;;;;;;;;;5019239;28;20053;-70
2021/11/03 14:06:36;;;;;;;4.78;3.22;;;;;;;;;;5020231;28;20107;-68
2021/11/03 14:09:17;;;;;;;4.75;3.13;;;;;;;;;;5023294;28;20063;-68
2021/11/03 14:11:46;;;;;;;6.85;3.88;;;;;;;;;;5019269;28;20435;-68
2021/11/03 14:14:15;;;;;;;5.95;3.33;;;;;;;;;;5023898;28;20500;-68
2021/11/03 14:16:48;;;;;;;3.67;3.20;;;;;;;;;;5020619;28;20408;-69
2021/11/03 14:19:21;;;;;;;4.80;3.38;;;;;;;;;;5022093;28;20042;-68
2021/11/03 14:21:49;;;;;;;3.90;3.55;;;;;;;;;;5018509;28;20061;-67
2021/11/03 14:24:16;;;;;;;4.30;3.70;;;;;;;;;;5027726;28;20099;-69
2021/11/03 14:26:46;;;;;;;5.72;3.78;;;;;;;;;;5021162;28;20323;-69
2021/11/03 14:29:13;;;;;;;7.70;3.83;;;;;;;;;;5021638;28;20049;-68
2021/11/03 14:31:42;;;;;;;4.72;3.28;;;;;;;;;;5021051;28;20054;-67
2021/11/03 14:34:19;;;;;;;5.00;3.35;;;;;;;;;;5004522;28;20426;-69
2021/11/03 14:36:53;;;;;;;4.90;3.33;;;;;;;;;;5008671;28;20493;-70
2021/11/03 14:39:23;;;;;;;4.70;3.47;;;;;;;;;;5018575;28;20493;-69
2021/11/03 14:41:52;;;;;;;7.93;3.55;;;;;;;;;;5020711;28;20038;-67
2021/11/03 14:44:19;;;;;;;4.50;3.90;;;;;;;;;;5019724;28;20045;-66
2021/11/03 14:46:52;;;;;;;8.02;4.32;;;;;;;;;;5022717;28;20049;-71
2021/11/03 14:49:29;;;;;;;6.57;4.30;;;;;;;;;;5020778;28;20044;-70
2021/11/03 14:52:05;;;;;;;4.40;3.97;;;;;;;;;;5018348;28;20386;-69
2021/11/03 14:54:34;;;;;;;6.95;4.10;;;;;;;;;;5020221;28;20049;-66
2021/11/03 14:57:03;;;;;;;5.50;4.07;;;;;;;;;;5021868;28;20134;-67
2021/11/03 14:59:30;;;;;;;6.18;4.45;;;;;;;;;;5027220;28;20444;-67
2021/11/03 15:02:00;;;;;;;7.28;3.85;;;;;;;;;;5025772;28;20061;-67
2021/11/03 15:04:35;;;;;;;5.90;3.75;;;;;;;;;;5017125;28;20065;-66
2021/11/03 15:07:02;;;;;;;5.30;4.40;;;;;;;;;;5025049;28;20053;-67
2021/11/03 15:09:51;;;;;;;5.28;4.30;;;;;;;;;;5021504;28;20045;-66